Terminal Aerodrome Forecast
Issued by NWS Pocatello, ID

Home | Current Version | Previous Version | Text Only | Print | Product List | Glossary On
Versions: 1 2 3 4 5 6 7 8 9 10 11 12
667
FTUS45 KPIH 122320
TAFBYI
TAF
KBYI 122320Z 1300/1324 VRB05KT P6SM SCT160
     FM131400 18008KT P6SM BKN035
     FM131800 25015G25KT P6SM SCT035 SCT180=

USA.gov is the U.S. government's official web portal to all federal, state and local government web resources and services.